Time;durP1;ratioP1;P1;durP2;ratioP2;P2;SDS_P1;SDS_P2;PMS_P1;PMS_P2;Temp;Humidity;BMP_temperature;BMP_pressure;BME280_temperature;BME280_humidity;BME280_pressure;Samples;Min_cycle;Max_cycle;Signal;HPM_P1;HPM_P2
2022/12/11 00:01:53;;;;;;;32.10;19.43;;;;;;;0.22;90.50;100232.53;5054525;28;20213;-81
2022/12/11 00:04:20;;;;;;;32.87;20.13;;;;;;;0.19;90.81;100233.34;5053948;28;20233;-82
2022/12/11 00:06:49;;;;;;;29.30;19.53;;;;;;;0.15;90.42;100231.56;5053823;28;20197;-80
2022/12/11 00:09:15;;;;;;;33.70;20.77;;;;;;;0.17;90.18;100235.00;5053605;28;20216;-80
2022/12/11 00:11:42;;;;;;;33.47;20.57;;;;;;;0.09;91.20;100228.88;5053032;28;20205;-81
2022/12/11 00:14:08;;;;;;;26.77;19.57;;;;;;;0.15;90.87;100218.72;5054421;28;20198;-80
2022/12/11 00:16:35;;;;;;;34.23;21.37;;;;;;;0.14;90.84;100217.88;5055496;28;20209;-79
2022/12/11 00:19:01;;;;;;;30.77;19.87;;;;;;;0.09;91.19;100216.91;5054486;28;20228;-79
2022/12/11 00:21:28;;;;;;;33.90;21.40;;;;;;;0.07;90.55;100215.16;5054414;28;20592;-80
2022/12/11 00:23:56;;;;;;;31.27;20.23;;;;;;;0.12;91.03;100204.13;5054794;28;20239;-80
2022/12/11 00:26:23;;;;;;;33.60;21.30;;;;;;;0.11;90.53;100206.66;5053603;28;20213;-80
2022/12/11 00:28:53;;;;;;;35.17;20.30;;;;;;;0.06;91.25;100204.03;5053654;28;20201;-81
2022/12/11 00:31:21;;;;;;;34.80;20.83;;;;;;;0.12;90.70;100195.56;5054290;28;20206;-81
2022/12/11 00:33:48;;;;;;;30.80;20.77;;;;;;;0.13;90.85;100199.88;5053562;28;20241;-79
2022/12/11 00:36:16;;;;;;;32.93;21.30;;;;;;;0.16;90.34;100202.50;5054037;28;20755;-80
2022/12/11 00:38:43;;;;;;;32.37;22.07;;;;;;;0.08;90.38;100215.19;5054582;28;20205;-80
2022/12/11 00:41:11;;;;;;;30.73;20.13;;;;;;;0.09;90.69;100219.47;5054155;28;20691;-81
2022/12/11 00:43:38;;;;;;;29.83;20.10;;;;;;;0.03;90.61;100219.34;5054508;28;20229;-80
2022/12/11 00:46:05;;;;;;;31.40;19.70;;;;;;;0.04;90.26;100221.09;5054212;28;20203;-81
2022/12/11 00:48:31;;;;;;;29.40;20.07;;;;;;;-0.01;90.93;100220.97;5054403;28;20210;-80
2022/12/11 00:50:58;;;;;;;34.63;20.47;;;;;;;-0.04;90.71;100213.22;5053453;28;20202;-78
2022/12/11 00:53:24;;;;;;;29.17;20.13;;;;;;;-0.01;91.33;100207.28;5054402;28;20240;-80
2022/12/11 00:55:51;;;;;;;28.13;20.07;;;;;;;-0.02;91.31;100203.88;5053950;28;20201;-81
2022/12/11 00:58:19;;;;;;;34.53;21.00;;;;;;;-0.12;91.91;100198.50;5053509;28;20664;-80
2022/12/11 01:00:47;;;;;;;31.20;20.57;;;;;;;-0.05;91.60;100183.25;5051016;28;20225;-81
2022/12/11 01:03:15;;;;;;;29.37;18.80;;;;;;;-0.03;90.75;100189.28;5052832;28;20222;-81
2022/12/11 01:05:41;;;;;;;28.00;19.17;;;;;;;-0.06;89.71;100212.34;5054169;28;20194;-78
2022/12/11 01:08:08;;;;;;;27.87;19.30;;;;;;;0.02;90.63;100225.31;5054387;28;20221;-80
2022/12/11 01:10:33;;;;;;;33.90;20.43;;;;;;;0.04;90.38;100220.19;5053922;28;20866;-81
2022/12/11 01:13:02;;;;;;;27.70;19.30;;;;;;;-0.03;90.85;100209.81;5054296;28;20222;-80
2022/12/11 01:15:32;;;;;;;32.97;20.70;;;;;;;-0.03;91.57;100207.25;5053543;28;20201;-80
2022/12/11 01:17:58;;;;;;;25.00;20.03;;;;;;;-0.07;91.31;100217.44;5053898;28;20206;-81
2022/12/11 01:20:27;;;;;;;28.87;19.50;;;;;;;-0.04;90.79;100228.63;5053864;28;20247;-81
2022/12/11 01:22:54;;;;;;;28.97;19.33;;;;;;;-0.09;90.52;100234.50;5056066;28;20229;-81
2022/12/11 01:25:21;;;;;;;29.67;19.17;;;;;;;-0.07;91.11;100214.88;5054095;28;20214;-81
2022/12/11 01:27:50;;;;;;;28.47;19.07;;;;;;;-0.08;91.57;100213.13;5053818;28;20217;-79
2022/12/11 01:30:17;;;;;;;33.07;18.87;;;;;;;-0.02;90.95;100209.00;5053966;28;20202;-80
2022/12/11 01:32:45;;;;;;;25.77;18.33;;;;;;;0.05;91.32;100206.56;5054474;28;20237;-81
2022/12/11 01:35:12;;;;;;;30.63;21.30;;;;;;;-0.06;91.42;100207.19;5054241;28;20201;-80
2022/12/11 01:37:38;;;;;;;32.07;20.10;;;;;;;-0.10;92.11;100201.97;5054032;28;20217;-80
2022/12/11 01:40:07;;;;;;;29.53;19.87;;;;;;;-0.09;91.60;100189.16;5053501;28;20721;-80
2022/12/11 01:42:34;;;;;;;28.67;19.50;;;;;;;-0.12;92.20;100186.56;5053783;28;20221;-80
2022/12/11 01:45:32;;;;;;;30.37;19.67;;;;;;;-0.04;91.80;100189.25;5054298;28;20706;-81
2022/12/11 01:48:07;;;;;;;30.07;19.70;;;;;;;0.02;90.91;100191.06;5053906;28;20211;-81
2022/12/11 01:50:36;;;;;;;31.03;19.70;;;;;;;-0.01;91.28;100197.88;5053440;28;20205;-81
2022/12/11 01:53:05;;;;;;;25.73;19.67;;;;;;;0.07;91.23;100202.31;5053575;28;20594;-81
2022/12/11 01:55:32;;;;;;;29.80;19.70;;;;;;;0.16;90.38;100215.34;5054650;28;20216;-81
2022/12/11 01:58:00;;;;;;;29.40;19.70;;;;;;;0.02;90.96;100229.56;5054159;28;20221;-81
2022/12/11 02:00:27;;;;;;;28.73;19.03;;;;;;;0.08;90.77;100222.00;5053676;28;20770;-81
2022/12/11 02:02:53;;;;;;;27.57;19.63;;;;;;;0.06;90.03;100224.53;5053051;28;20229;-80
2022/12/11 02:05:21;;;;;;;26.50;19.07;;;;;;;0.08;90.85;100230.56;5053196;28;20210;-80
2022/12/11 02:07:51;;;;;;;29.13;18.83;;;;;;;0.00;91.20;100227.00;5052900;28;20205;-80
2022/12/11 02:10:18;;;;;;;28.63;19.97;;;;;;;-0.04;90.60;100225.16;5052744;28;20217;-80
2022/12/11 02:12:54;;;;;;;29.87;19.87;;;;;;;0.04;90.99;100215.06;5054285;28;20229;-80
2022/12/11 02:15:30;;;;;;;27.67;20.03;;;;;;;0.09;90.54;100218.59;5058720;28;20228;-80
2022/12/11 02:18:11;;;;;;;29.60;20.03;;;;;;;0.11;90.84;100219.50;5060235;28;20208;-80
2022/12/11 02:20:44;;;;;;;31.23;19.23;;;;;;;0.08;90.01;100232.25;5059422;28;20204;-80
2022/12/11 02:23:27;;;;;;;31.27;19.47;;;;;;;0.08;90.45;100229.69;5058920;28;20253;-80
2022/12/11 02:26:03;;;;;;;32.20;19.67;;;;;;;0.05;90.33;100227.06;4710629;28;10000334;-80
2022/12/11 02:28:34;;;;;;;32.43;19.87;;;;;;;0.01;90.75;100226.16;5061795;28;20200;-80
2022/12/11 02:31:07;;;;;;;31.83;21.07;;;;;;;-0.02;90.22;100226.97;5059392;28;20228;-81
2022/12/11 02:33:41;;;;;;;33.10;21.47;;;;;;;-0.05;90.66;100237.16;5061267;28;20228;-81
2022/12/11 02:36:09;;;;;;;30.43;20.03;;;;;;;-0.07;90.46;100238.81;5062272;28;20217;-79
2022/12/11 02:38:40;;;;;;;34.07;21.00;;;;;;;-0.06;90.53;100226.84;5061804;28;20556;-80
2022/12/11 02:41:09;;;;;;;24.83;20.10;;;;;;;-0.06;90.55;100227.72;5061836;28;20304;-81
2022/12/11 02:43:39;;;;;;;30.83;19.73;;;;;;;-0.08;90.47;100221.69;5060951;28;20229;-81
2022/12/11 02:46:07;;;;;;;39.27;22.03;;;;;;;-0.07;91.15;100217.44;5061216;28;20221;-80
2022/12/11 02:48:35;;;;;;;30.53;20.60;;;;;;;-0.05;90.93;100220.88;5061210;28;20205;-81
2022/12/11 02:51:05;;;;;;;28.30;20.63;;;;;;;0.02;90.26;100227.88;5061440;28;20205;-81
2022/12/11 02:53:35;;;;;;;30.33;21.03;;;;;;;0.07;89.53;100249.34;5061095;28;20225;-81
2022/12/11 02:56:07;;;;;;;31.00;20.70;;;;;;;0.11;88.73;100269.13;5060903;28;20224;-82
2022/12/11 02:58:38;;;;;;;32.03;21.37;;;;;;;0.13;88.13;100284.56;5061182;28;20209;-79
2022/12/11 03:01:05;;;;;;;31.80;21.33;;;;;;;0.14;87.52;100297.41;5060213;28;20676;-81
2022/12/11 03:03:32;;;;;;;25.80;19.23;;;;;;;0.10;87.24;100316.16;5060476;28;20700;-82
2022/12/11 03:05:58;;;;;;;29.40;20.23;;;;;;;0.08;87.92;100329.78;5060801;28;20561;-82
2022/12/11 03:08:25;;;;;;;26.37;19.70;;;;;;;0.03;87.79;100319.41;5060574;28;20216;-82
2022/12/11 03:10:51;;;;;;;28.07;20.53;;;;;;;0.03;88.49;100314.28;5060194;28;20288;-78
2022/12/11 03:13:21;;;;;;;28.30;20.40;;;;;;;0.03;87.74;100313.44;5060660;28;20221;-78
2022/12/11 03:16:03;;;;;;;27.67;20.17;;;;;;;-0.01;88.48;100313.34;5060121;28;20232;-81
2022/12/11 03:18:35;;;;;;;30.97;21.77;;;;;;;0.03;88.59;100303.16;5060726;28;20205;-80
2022/12/11 03:21:05;;;;;;;27.90;20.37;;;;;;;-0.01;88.83;100304.78;5060074;28;20214;-80
2022/12/11 03:23:34;;;;;;;33.97;21.97;;;;;;;-0.05;89.12;100296.16;5060296;28;20237;-80
2022/12/11 03:26:04;;;;;;;26.37;20.70;;;;;;;-0.01;88.83;100290.25;5056339;28;20626;-80
2022/12/11 03:28:37;;;;;;;31.03;20.07;;;;;;;0.01;87.71;100297.13;5057180;28;20243;-80
2022/12/11 03:31:09;;;;;;;27.07;20.20;;;;;;;-0.03;88.42;100307.31;5056723;28;20216;-79
2022/12/11 03:33:39;;;;;;;28.40;20.23;;;;;;;-0.08;87.90;100305.47;5056781;28;20719;-81
2022/12/11 03:36:10;;;;;;;27.50;20.43;;;;;;;-0.08;88.65;100288.41;5057440;28;20633;-81
2022/12/11 03:38:43;;;;;;;26.20;18.93;;;;;;;-0.06;88.54;100270.47;5057218;28;20209;-79
2022/12/11 03:41:12;;;;;;;25.20;18.23;;;;;;;-0.05;88.58;100261.94;5056491;28;20201;-81
2022/12/11 03:43:40;;;;;;;24.23;19.17;;;;;;;-0.05;88.21;100267.94;5056406;28;20229;-80
2022/12/11 03:46:09;;;;;;;26.17;20.10;;;;;;;-0.05;88.52;100273.06;5056446;28;20426;-80
2022/12/11 03:48:40;;;;;;;22.20;17.43;;;;;;;-0.03;88.44;100273.09;5056624;28;20210;-80
2022/12/11 03:51:07;;;;;;;26.93;19.73;;;;;;;-0.06;88.68;100281.59;5056977;28;20205;-80
2022/12/11 03:53:36;;;;;;;29.20;19.73;;;;;;;-0.10;88.34;100289.19;5056445;28;20720;-79
2022/12/11 03:56:04;;;;;;;21.53;17.97;;;;;;;-0.10;88.24;100292.63;5056704;28;20205;-79
2022/12/11 03:58:30;;;;;;;26.77;18.77;;;;;;;-0.10;88.25;100292.63;5056509;28;20208;-81
2022/12/11 04:00:57;;;;;;;24.53;18.47;;;;;;;-0.07;87.98;100289.25;5055864;28;20624;-80
2022/12/11 04:03:25;;;;;;;23.47;18.77;;;;;;;-0.06;87.97;100301.25;5056605;28;20233;-80
2022/12/11 04:05:54;;;;;;;27.70;19.60;;;;;;;-0.08;87.97;100296.09;5056669;28;20206;-80
2022/12/11 04:08:22;;;;;;;27.27;19.47;;;;;;;-0.08;87.87;100303.81;5056695;28;20639;-80
2022/12/11 04:11:33;;;;;;;24.73;18.53;;;;;;;-0.08;88.06;100306.38;5056416;28;20209;-81
2022/12/11 04:13:36;;;;;;;23.67;18.33;;;;;;;-0.07;88.44;100307.22;5056045;28;20252;-80
2022/12/11 04:16:01;;;;;;;25.67;18.60;;;;;;;-0.08;88.42;100298.66;5056112;28;20228;-81
2022/12/11 04:24:16;;;;;;;21.80;17.83;;;;;;;-0.15;87.47;100321.59;5055719;28;20308;-79
2022/12/11 04:26:43;;;;;;;26.87;19.07;;;;;;;-0.10;87.39;100318.28;5056282;28;20201;-81
2022/12/11 04:29:09;;;;;;;27.17;19.90;;;;;;;-0.10;86.89;100326.00;5055833;28;20201;-81
2022/12/11 04:31:36;;;;;;;24.83;18.43;;;;;;;-0.07;86.64;100338.00;5055479;28;20213;-82
2022/12/11 04:34:03;;;;;;;25.27;18.37;;;;;;;-0.08;86.98;100341.38;5055844;28;20222;-82
2022/12/11 04:36:30;;;;;;;26.40;19.13;;;;;;;-0.08;86.97;100336.25;5056007;28;20209;-80
2022/12/11 04:38:56;;;;;;;23.73;18.67;;;;;;;-0.09;87.51;100337.09;5056826;28;20205;-80
2022/12/11 04:41:23;;;;;;;30.17;19.80;;;;;;;-0.07;87.37;100340.56;5056150;28;20220;-81
2022/12/11 04:43:49;;;;;;;25.03;19.50;;;;;;;-0.08;86.86;100333.69;5056453;28;20249;-79
2022/12/11 04:46:19;;;;;;;27.80;19.40;;;;;;;-0.06;87.14;100334.59;5056361;28;20214;-80
2022/12/11 04:48:46;;;;;;;23.23;18.20;;;;;;;-0.07;87.07;100341.44;5056508;28;20206;-79
2022/12/11 04:51:15;;;;;;;24.80;19.03;;;;;;;-0.09;87.22;100334.53;5055932;28;20208;-81
2022/12/11 04:53:42;;;;;;;24.83;19.47;;;;;;;-0.09;87.24;100331.97;5055847;28;20234;-81
2022/12/11 04:56:11;;;;;;;22.43;18.47;;;;;;;-0.07;87.21;100322.63;5056079;28;20201;-78
2022/12/11 04:58:38;;;;;;;21.27;18.17;;;;;;;-0.06;86.87;100332.03;5055969;28;20228;-80
2022/12/11 05:01:07;;;;;;;21.93;18.30;;;;;;;-0.08;87.10;100331.13;5055929;28;20214;-80
2022/12/11 05:03:34;;;;;;;20.20;17.30;;;;;;;-0.09;86.49;100335.41;5055950;28;20225;-80
2022/12/11 05:06:00;;;;;;;22.60;18.43;;;;;;;-0.07;87.13;100341.44;5056048;28;20233;-81
2022/12/11 05:08:28;;;;;;;24.97;19.20;;;;;;;-0.13;86.84;100337.88;5056084;28;20597;-81
2022/12/11 05:10:56;;;;;;;23.43;18.77;;;;;;;-0.09;86.79;100330.28;5056120;28;20707;-80
2022/12/11 05:13:23;;;;;;;25.97;19.07;;;;;;;-0.16;87.15;100328.38;5055904;28;20226;-81
2022/12/11 05:15:49;;;;;;;26.87;20.37;;;;;;;-0.22;87.02;100315.44;5056523;28;20198;-80
2022/12/11 05:18:15;;;;;;;23.37;19.17;;;;;;;-0.17;88.00;100301.03;5056971;28;20237;-80
2022/12/11 05:20:42;;;;;;;27.30;18.80;;;;;;;-0.16;87.42;100301.88;5057164;28;20205;-80
2022/12/11 05:23:08;;;;;;;24.07;18.53;;;;;;;-0.09;87.02;100294.34;5058473;28;20225;-81
2022/12/11 05:25:36;;;;;;;28.57;19.30;;;;;;;-0.07;86.75;100295.25;5057962;28;20236;-80
2022/12/11 05:28:03;;;;;;;27.40;20.00;;;;;;;-0.05;86.99;100300.44;5067360;28;20374;-80
2022/12/11 05:30:29;;;;;;;29.37;19.33;;;;;;;-0.07;86.94;100305.50;5071425;28;20208;-80
2022/12/11 05:32:56;;;;;;;21.37;17.60;;;;;;;-0.06;86.82;100309.81;5070699;28;20225;-79
2022/12/11 05:35:22;;;;;;;30.73;19.53;;;;;;;-0.09;86.64;100312.31;5072318;28;20202;-80
2022/12/11 05:37:48;;;;;;;26.10;19.17;;;;;;;-0.08;87.33;100315.72;5070624;28;20208;-80
2022/12/11 05:40:15;;;;;;;25.37;18.30;;;;;;;-0.08;86.65;100313.16;5067753;28;20220;-81
2022/12/11 05:42:43;;;;;;;27.63;19.00;;;;;;;-0.09;86.10;100329.41;5063834;28;20225;-82
2022/12/11 05:45:10;;;;;;;23.07;18.07;;;;;;;-0.09;86.01;100339.66;5056112;28;20233;-82
2022/12/11 05:47:37;;;;;;;25.03;19.10;;;;;;;-0.11;86.03;100347.31;5056183;28;20205;-81
2022/12/11 05:50:03;;;;;;;24.37;18.50;;;;;;;-0.13;85.39;100360.97;5056998;28;20216;-81
2022/12/11 05:52:31;;;;;;;20.93;18.13;;;;;;;-0.13;85.19;100373.78;5056104;28;20260;-81
2022/12/11 05:54:58;;;;;;;24.67;18.53;;;;;;;-0.17;86.06;100372.84;5056662;28;20217;-80
2022/12/11 05:57:24;;;;;;;23.10;17.90;;;;;;;-0.23;85.66;100362.44;5056193;28;20216;-82
2022/12/11 05:59:52;;;;;;;30.43;18.77;;;;;;;-0.23;86.36;100336.78;5056203;28;20205;-81
2022/12/11 06:02:18;;;;;;;26.83;19.17;;;;;;;-0.23;85.95;100334.22;5056213;28;20598;-81
2022/12/11 06:04:45;;;;;;;26.83;19.17;;;;;;;-0.24;86.21;100327.34;5055967;28;20240;-81
2022/12/11 06:07:11;;;;;;;30.13;20.60;;;;;;;-0.30;86.29;100333.19;5056382;28;20206;-82
2022/12/11 06:09:38;;;;;;;33.37;19.47;;;;;;;-0.39;86.95;100329.59;5056757;28;20221;-82
2022/12/11 06:12:05;;;;;;;31.43;20.13;;;;;;;-0.34;87.33;100304.91;5055897;28;20233;-82
2022/12/11 06:14:31;;;;;;;21.27;18.20;;;;;;;-0.28;86.56;100297.34;5056374;28;20212;-81
2022/12/11 06:17:00;;;;;;;24.07;17.90;;;;;;;-0.21;86.49;100305.22;5055428;28;20584;-80
2022/12/11 06:19:26;;;;;;;24.37;18.10;;;;;;;-0.20;85.55;100321.47;5056551;28;20209;-81
2022/12/11 06:21:53;;;;;;;22.50;17.70;;;;;;;-0.30;86.26;100322.09;5056131;28;20213;-81
2022/12/11 06:24:19;;;;;;;22.93;18.00;;;;;;;-0.32;86.17;100332.31;5056705;28;20209;-80
2022/12/11 06:26:46;;;;;;;25.43;19.70;;;;;;;-0.30;86.75;100325.50;5056361;28;20212;-82
2022/12/11 06:29:12;;;;;;;23.17;17.70;;;;;;;-0.25;86.36;100305.97;5057013;28;20206;-80
2022/12/11 06:31:38;;;;;;;27.13;18.63;;;;;;;-0.27;85.67;100307.63;5055227;28;20217;-81
2022/12/11 06:34:06;;;;;;;24.80;18.57;;;;;;;-0.26;85.98;100319.66;5055918;28;20561;-81
2022/12/11 06:36:33;;;;;;;25.53;18.93;;;;;;;-0.27;86.01;100324.72;5056886;28;20209;-81
2022/12/11 06:38:59;;;;;;;22.37;18.10;;;;;;;-0.27;85.20;100332.44;5056106;28;20197;-80
2022/12/11 06:41:25;;;;;;;24.60;18.73;;;;;;;-0.24;85.90;100335.03;5055551;28;20209;-81
2022/12/11 06:43:52;;;;;;;21.87;17.93;;;;;;;-0.19;84.93;100338.59;5055557;28;20231;-80
2022/12/11 06:46:20;;;;;;;23.00;17.73;;;;;;;-0.23;85.07;100349.63;5055548;28;20229;-82
2022/12/11 06:48:47;;;;;;;22.63;18.23;;;;;;;-0.26;84.76;100354.66;5055884;28;20206;-81
2022/12/11 06:51:17;;;;;;;22.03;17.47;;;;;;;-0.39;84.63;100363.78;5055676;28;20213;-80
2022/12/11 06:53:44;;;;;;;21.80;17.83;;;;;;;-0.34;84.44;100366.44;5055936;28;20235;-81
2022/12/11 06:56:13;;;;;;;24.03;19.30;;;;;;;-0.29;85.19;100370.00;5056036;28;20208;-82
2022/12/11 06:58:41;;;;;;;21.03;17.83;;;;;;;-0.23;84.40;100371.00;5056183;28;20201;-82
2022/12/11 07:01:15;;;;;;;25.23;18.13;;;;;;;-0.26;84.50;100376.06;5057897;28;20208;-81
2022/12/11 07:03:41;;;;;;;21.87;17.53;;;;;;;-0.28;84.56;100384.53;5060054;28;20221;-81
2022/12/11 07:06:08;;;;;;;19.77;16.67;;;;;;;-0.24;84.67;100389.78;5059527;28;20229;-80
2022/12/11 07:08:35;;;;;;;25.70;18.30;;;;;;;-0.37;84.84;100398.00;5059637;28;20572;-80
2022/12/11 07:11:03;;;;;;;25.60;18.10;;;;;;;-0.36;85.15;100381.78;5059106;28;20206;-81
2022/12/11 07:13:30;;;;;;;22.87;19.77;;;;;;;-0.33;84.63;100384.44;5059590;28;20225;-81
2022/12/11 07:15:58;;;;;;;25.23;17.80;;;;;;;-0.30;84.95;100397.31;5058776;28;20208;-80
2022/12/11 07:18:24;;;;;;;22.93;18.03;;;;;;;-0.33;85.04;100396.41;5059232;28;20206;-79
2022/12/11 07:20:50;;;;;;;23.00;19.17;;;;;;;-0.37;85.45;100392.88;5059868;28;20205;-81
2022/12/11 07:23:17;;;;;;;23.53;18.13;;;;;;;-0.30;84.74;100389.63;5059205;28;20310;-80
2022/12/11 07:25:45;;;;;;;24.73;19.20;;;;;;;-0.38;84.94;100386.00;5060396;28;20225;-80
2022/12/11 07:28:11;;;;;;;25.30;17.43;;;;;;;-0.33;85.33;100392.13;5060708;28;20213;-80
2022/12/11 07:30:38;;;;;;;24.87;18.53;;;;;;;-0.29;85.52;100390.50;5061185;28;20209;-81
2022/12/11 07:33:05;;;;;;;25.23;20.13;;;;;;;-0.35;85.29;100396.34;5060273;28;20232;-81
2022/12/11 07:35:34;;;;;;;26.10;19.07;;;;;;;-0.39;85.46;100380.88;5061568;28;20635;-81
2022/12/11 07:38:01;;;;;;;28.13;19.70;;;;;;;-0.37;85.43;100377.50;5060290;28;20202;-81
2022/12/11 07:40:27;;;;;;;29.03;20.37;;;;;;;-0.37;85.28;100376.66;5059863;28;20220;-81
2022/12/11 07:42:55;;;;;;;25.23;18.80;;;;;;;-0.28;85.10;100379.41;5060143;28;20268;-81
2022/12/11 07:45:22;;;;;;;27.40;20.53;;;;;;;-0.28;84.89;100390.56;5060532;28;20244;-81
2022/12/11 07:47:48;;;;;;;28.40;20.20;;;;;;;-0.23;85.03;100380.41;5060074;28;20205;-80
2022/12/11 07:50:15;;;;;;;24.17;18.93;;;;;;;-0.34;85.31;100392.94;5057929;28;20275;-81
2022/12/11 07:52:41;;;;;;;26.73;19.87;;;;;;;-0.40;85.40;100382.53;5059276;28;20240;-80
2022/12/11 07:55:08;;;;;;;25.27;20.07;;;;;;;-0.35;85.44;100386.09;5059168;28;20202;-80
2022/12/11 07:57:35;;;;;;;27.38;24.27;;;;;;;-0.21;84.66;100386.44;5057540;28;20435;-80
2022/12/11 08:00:04;;;;;;;26.37;22.03;;;;;;;-0.28;84.36;100390.56;5059014;28;20255;-79
2022/12/11 08:02:30;;;;;;;25.83;19.57;;;;;;;-0.24;84.70;100400.06;5058081;28;20241;-81
2022/12/11 08:04:56;;;;;;;23.87;20.00;;;;;;;-0.19;84.66;100397.59;5059380;28;20233;-80
2022/12/11 08:07:23;;;;;;;23.43;18.53;;;;;;;-0.15;83.66;100411.38;5059313;28;20213;-81
2022/12/11 08:09:49;;;;;;;23.70;18.87;;;;;;;-0.21;84.06;100423.19;5057936;28;20220;-77
2022/12/11 08:12:16;;;;;;;24.77;20.17;;;;;;;-0.21;83.91;100424.91;5057708;28;20304;-81
2022/12/11 08:14:42;;;;;;;25.90;18.83;;;;;;;-0.23;83.72;100429.13;5058599;28;20209;-81
2022/12/11 08:17:10;;;;;;;24.93;19.27;;;;;;;-0.22;84.16;100435.97;5057819;28;20206;-82
2022/12/11 08:19:36;;;;;;;23.13;18.20;;;;;;;-0.26;84.18;100431.59;5059134;28;20206;-82
2022/12/11 08:22:03;;;;;;;25.90;19.63;;;;;;;-0.20;83.91;100436.88;5056345;28;20234;-81
2022/12/11 08:24:30;;;;;;;26.00;20.87;;;;;;;-0.19;83.21;100435.22;5058921;28;20216;-81
2022/12/11 08:26:56;;;;;;;25.60;20.47;;;;;;;-0.22;83.28;100433.41;5058495;28;20232;-81
2022/12/11 08:29:22;;;;;;;37.47;25.10;;;;;;;-0.31;83.57;100443.47;5058455;28;20209;-80
2022/12/11 08:31:49;;;;;;;35.53;25.13;;;;;;;-0.33;84.40;100429.75;5057402;28;20218;-80
2022/12/11 08:34:17;;;;;;;30.13;22.80;;;;;;;-0.27;83.94;100425.63;5057948;28;20206;-81
2022/12/11 08:36:43;;;;;;;25.60;20.57;;;;;;;-0.23;83.50;100431.69;5058108;28;20202;-79
2022/12/11 08:39:10;;;;;;;21.70;19.03;;;;;;;-0.18;83.99;100437.78;5057778;28;20205;-81
2022/12/11 08:41:36;;;;;;;22.03;17.57;;;;;;;-0.25;84.02;100438.50;5056509;28;20283;-80
2022/12/11 08:44:03;;;;;;;23.03;18.63;;;;;;;-0.19;83.41;100441.19;5057970;28;20717;-80
2022/12/11 08:46:30;;;;;;;21.93;18.37;;;;;;;-0.16;83.21;100454.09;5057324;28;20304;-80
2022/12/11 08:48:57;;;;;;;19.00;16.97;;;;;;;-0.19;82.18;100477.13;5057843;28;20209;-82
2022/12/11 08:51:27;;;;;;;19.10;16.83;;;;;;;-0.25;82.26;100482.09;5057442;28;20206;-82
2022/12/11 08:53:55;;;;;;;19.20;16.40;;;;;;;-0.27;82.20;100488.88;5056697;28;20252;-81
2022/12/11 08:56:22;;;;;;;17.70;15.83;;;;;;;-0.23;81.74;100499.25;5055891;28;20695;-80
2022/12/11 08:58:49;;;;;;;20.70;15.83;;;;;;;-0.21;81.58;100509.56;5056382;28;20242;-82
2022/12/11 09:01:18;;;;;;;19.37;17.13;;;;;;;-0.25;81.82;100505.19;5056554;28;20803;-81
2022/12/11 09:03:44;;;;;;;20.20;18.13;;;;;;;-0.25;82.25;100497.47;5056594;28;20233;-80
2022/12/11 09:06:14;;;;;;;19.27;17.27;;;;;;;-0.21;82.46;100497.59;5056186;28;20225;-81
2022/12/11 09:08:42;;;;;;;21.47;17.83;;;;;;;-0.17;81.98;100488.28;5056498;28;20209;-82
2022/12/11 09:11:11;;;;;;;18.60;16.67;;;;;;;-0.19;82.59;100495.06;5056280;28;20217;-81
2022/12/11 09:13:38;;;;;;;20.17;17.87;;;;;;;-0.19;82.32;100489.06;5056251;28;20229;-81
2022/12/11 09:16:06;;;;;;;21.10;17.07;;;;;;;-0.21;82.62;100478.78;5055963;28;20201;-82
2022/12/11 09:18:32;;;;;;;19.40;17.30;;;;;;;-0.19;82.43;100483.94;5056579;28;20216;-82
2022/12/11 09:21:00;;;;;;;17.53;15.73;;;;;;;-0.22;81.59;100492.41;5055440;28;20214;-79
2022/12/11 09:23:27;;;;;;;18.60;16.57;;;;;;;-0.19;82.06;100497.63;5054830;28;20240;-82
2022/12/11 09:25:55;;;;;;;19.47;17.43;;;;;;;-0.13;82.41;100495.22;5056037;28;20674;-80
2022/12/11 09:28:22;;;;;;;21.60;18.53;;;;;;;-0.12;82.73;100476.44;5056670;28;20207;-81
2022/12/11 09:30:48;;;;;;;24.53;18.23;;;;;;;-0.10;82.86;100474.78;5056349;28;20221;-80
2022/12/11 09:33:14;;;;;;;22.40;18.80;;;;;;;-0.19;82.59;100471.97;5056768;28;20228;-80
2022/12/11 09:35:41;;;;;;;23.47;18.43;;;;;;;-0.13;82.83;100461.88;5056174;28;20203;-80
2022/12/11 09:38:08;;;;;;;24.47;18.20;;;;;;;-0.08;81.67;100474.81;5056398;28;20217;-80
2022/12/11 09:40:39;;;;;;;24.07;17.77;;;;;;;-0.06;81.76;100476.59;5056327;28;20205;-81
2022/12/11 09:43:31;;;;;;;18.97;16.97;;;;;;;-0.08;82.47;100473.13;5056861;28;20653;-82
2022/12/11 09:46:02;;;;;;;21.30;17.50;;;;;;;-0.12;82.30;100476.44;5057784;28;20288;-82
2022/12/11 09:48:32;;;;;;;22.90;17.47;;;;;;;-0.08;82.32;100459.41;5056446;28;20869;-81
2022/12/11 09:51:03;;;;;;;25.70;18.83;;;;;;;-0.13;83.04;100467.00;5056603;28;20206;-80
2022/12/11 09:53:34;;;;;;;29.20;18.87;;;;;;;-0.14;83.30;100451.56;5056808;28;20266;-81
2022/12/11 09:56:07;;;;;;;22.40;18.47;;;;;;;-0.10;83.36;100433.75;5056116;28;20209;-81
2022/12/11 09:58:44;;;;;;;20.20;17.50;;;;;;;-0.17;83.31;100430.97;5056964;28;20209;-81
2022/12/11 10:01:20;;;;;;;22.27;17.17;;;;;;;-0.06;83.03;100420.16;5052617;28;20630;-79
2022/12/11 10:04:02;;;;;;;23.00;18.27;;;;;;;-0.05;82.32;100432.13;5056209;28;20287;-80
2022/12/11 10:06:35;;;;;;;19.30;17.23;;;;;;;0.03;82.55;100437.44;5055395;28;20229;-79
2022/12/11 10:09:13;;;;;;;21.13;18.23;;;;;;;0.01;82.48;100439.13;5055022;28;20205;-78
2022/12/11 10:11:56;;;;;;;22.63;18.17;;;;;;;0.00;83.13;100424.56;5055153;28;20201;-79
2022/12/11 10:14:31;;;;;;;23.03;18.00;;;;;;;0.02;82.40;100429.72;5055895;28;20866;-81
2022/12/11 10:17:02;;;;;;;22.57;16.97;;;;;;;-0.02;82.38;100439.03;5054602;28;20204;-81
2022/12/11 10:19:31;;;;;;;21.57;17.63;;;;;;;-0.01;81.78;100454.47;5055367;28;20679;-81
2022/12/11 10:21:59;;;;;;;20.73;16.90;;;;;;;0.07;81.82;100456.34;5054854;28;20693;-80
2022/12/11 10:24:38;;;;;;;27.03;20.23;;;;;;;-0.01;81.54;100462.16;5056289;28;20212;-81
2022/12/11 10:27:14;;;;;;;27.43;19.97;;;;;;;0.05;82.00;100447.75;5055315;28;20256;-83
2022/12/11 10:29:42;;;;;;;19.27;17.17;;;;;;;0.10;81.74;100448.72;5054842;28;20198;-79
2022/12/11 10:32:21;;;;;;;19.57;16.97;;;;;;;0.05;81.70;100453.75;5052594;28;20221;-79
2022/12/11 10:34:55;;;;;;;26.77;16.73;;;;;;;0.05;81.14;100465.72;5059112;28;20676;-80
2022/12/11 10:37:21;;;;;;;19.37;16.13;;;;;;;0.08;81.48;100460.66;5058627;28;20208;-78
2022/12/11 10:39:48;;;;;;;26.73;17.73;;;;;;;0.07;81.27;100459.78;5058545;28;20208;-79
2022/12/11 10:42:19;;;;;;;24.03;16.83;;;;;;;0.12;81.77;100457.31;5058546;28;20233;-80
2022/12/11 10:44:57;;;;;;;22.93;18.70;;;;;;;0.13;81.24;100453.94;5059250;28;20215;-80
2022/12/11 10:47:24;;;;;;;22.90;19.20;;;;;;;0.11;81.19;100456.47;5057404;28;20220;-81
2022/12/11 10:49:53;;;;;;;22.20;18.33;;;;;;;0.17;82.09;100453.16;5059178;28;20209;-81
2022/12/11 10:52:22;;;;;;;28.90;20.67;;;;;;;0.23;81.63;100452.47;5059246;28;20241;-80
2022/12/11 10:54:56;;;;;;;23.20;18.97;;;;;;;0.25;81.62;100451.66;5059474;28;20232;-81
2022/12/11 10:57:28;;;;;;;24.37;18.07;;;;;;;0.31;81.54;100448.34;5059779;28;20254;-81
2022/12/11 10:59:57;;;;;;;22.27;17.40;;;;;;;0.32;80.84;100457.81;5058551;28;20205;-81
2022/12/11 11:02:27;;;;;;;21.70;17.83;;;;;;;0.30;80.56;100470.59;5059107;28;20635;-80
2022/12/11 11:04:55;;;;;;;22.10;18.00;;;;;;;0.34;81.38;100474.13;5058316;28;20288;-81
2022/12/11 11:07:24;;;;;;;21.97;17.57;;;;;;;0.36;80.68;100468.19;5058910;28;20225;-81
2022/12/11 11:10:02;;;;;;;22.20;17.87;;;;;;;0.41;81.55;100465.69;5058756;28;20209;-82
2022/12/11 11:12:28;;;;;;;24.40;17.80;;;;;;;0.43;81.76;100460.59;5058011;28;20232;-81
2022/12/11 11:15:05;;;;;;;23.03;18.13;;;;;;;0.46;81.55;100453.00;5058827;28;20209;-79
2022/12/11 11:17:33;;;;;;;21.23;16.70;;;;;;;0.44;80.91;100464.91;5058561;28;20212;-82
2022/12/11 11:20:06;;;;;;;19.80;16.77;;;;;;;0.47;81.73;100457.28;5058446;28;20216;-82
2022/12/11 11:22:32;;;;;;;19.53;16.80;;;;;;;0.50;81.13;100468.47;5058723;28;20707;-82
2022/12/11 11:24:59;;;;;;;18.83;16.83;;;;;;;0.56;80.90;100460.06;5058591;28;20590;-83